createdAt,value
2022-09-25T00:02:56.664Z,68.31
2022-09-25T00:06:05.719Z,68.25
2022-09-25T00:09:10.171Z,68.17
2022-09-25T00:12:13.312Z,68.36
2022-09-25T00:15:16.357Z,68.18
2022-09-25T00:18:40.673Z,68.26
2022-09-25T00:21:43.775Z,68.20
2022-09-25T00:24:47.633Z,68.20
2022-09-25T00:27:53.508Z,68.16
2022-09-25T00:30:56.919Z,68.42
2022-09-25T00:34:03.073Z,68.46
2022-09-25T00:37:07.160Z,68.32
2022-09-25T00:40:10.664Z,68.36
2022-09-25T00:43:33.514Z,68.47
2022-09-25T00:46:44.543Z,68.53
2022-09-25T00:49:47.617Z,68.56
2022-09-25T00:52:54.588Z,68.42
2022-09-25T00:55:59.733Z,68.68
2022-09-25T00:59:02.959Z,68.80
2022-09-25T01:02:10.217Z,68.72
2022-09-25T01:05:17.667Z,68.76
2022-09-25T01:08:24.572Z,68.88
2022-09-25T01:11:27.900Z,68.97
2022-09-25T01:14:34.267Z,68.83
2022-09-25T01:17:58.479Z,68.99
2022-09-25T01:21:24.424Z,68.90
2022-09-25T01:25:16.405Z,69.12
2022-09-25T01:28:29.676Z,69.01
2022-09-25T01:31:46.383Z,69.09
2022-09-25T01:35:04.619Z,68.89
2022-09-25T01:38:23.415Z,69.06
2022-09-25T01:41:31.743Z,69.17
2022-09-25T01:44:49.927Z,69.10
2022-09-25T01:47:53.198Z,68.94
2022-09-25T01:51:24.706Z,69.40
2022-09-25T01:54:40.147Z,69.30
2022-09-25T01:57:59.335Z,69.34
2022-09-25T02:01:13.587Z,69.52
2022-09-25T02:04:47.809Z,69.45
2022-09-25T02:07:55.608Z,69.48
2022-09-25T02:11:03.990Z,69.56
2022-09-25T02:14:37.866Z,69.38
2022-09-25T02:18:37.278Z,69.55
2022-09-25T02:21:42.948Z,69.66
2022-09-25T02:25:07.141Z,69.68
2022-09-25T02:28:10.131Z,69.77
2022-09-25T02:31:16.188Z,69.62
2022-09-25T02:34:19.888Z,69.78
2022-09-25T02:37:23.714Z,69.65
2022-09-25T02:40:44.825Z,69.70
2022-09-25T02:44:11.535Z,69.68
2022-09-25T02:47:57.260Z,69.84
2022-09-25T02:51:11.308Z,69.82
2022-09-25T02:54:27.489Z,69.87
2022-09-25T02:57:45.496Z,69.73
2022-09-25T03:00:52.240Z,70.00
2022-09-25T03:03:58.103Z,69.82
2022-09-25T03:07:02.551Z,69.90
2022-09-25T03:10:06.693Z,69.93
2022-09-25T03:13:20.114Z,69.91
2022-09-25T03:16:47.859Z,69.93
2022-09-25T03:19:50.802Z,69.80
2022-09-25T03:22:55.829Z,69.84
2022-09-25T03:25:59.544Z,69.83
2022-09-25T03:29:02.651Z,69.66
2022-09-25T03:32:05.690Z,69.80
2022-09-25T03:35:09.214Z,69.85
2022-09-25T03:38:12.592Z,69.92
2022-09-25T03:41:20.218Z,69.92
2022-09-25T03:44:23.067Z,69.80
2022-09-25T03:47:25.920Z,70.05
2022-09-25T03:50:28.887Z,70.01
2022-09-25T03:53:33.573Z,70.12
2022-09-25T03:56:36.672Z,69.94
2022-09-25T03:59:39.598Z,70.25
2022-09-25T04:02:42.608Z,70.16
2022-09-25T04:05:46.276Z,70.18
2022-09-25T04:08:50.073Z,70.18
2022-09-25T04:11:55.321Z,70.14
2022-09-25T04:14:58.207Z,70.25
2022-09-25T04:18:05.903Z,70.27
2022-09-25T04:21:12.268Z,70.22
2022-09-25T04:24:33.704Z,70.03
2022-09-25T04:27:36.986Z,70.17
2022-09-25T04:30:39.962Z,70.18
2022-09-25T04:33:48.818Z,70.34
2022-09-25T04:36:51.801Z,70.24
2022-09-25T04:39:56.137Z,70.44
2022-09-25T04:43:01.128Z,70.48
2022-09-25T04:46:06.297Z,70.64
2022-09-25T04:49:09.322Z,70.47
2022-09-25T04:52:13.885Z,70.62
2022-09-25T04:55:24.901Z,70.47
2022-09-25T04:58:27.949Z,70.58
2022-09-25T05:01:31.015Z,70.80
2022-09-25T05:04:34.097Z,70.77
2022-09-25T05:07:37.176Z,70.95
2022-09-25T05:10:40.332Z,70.63
2022-09-25T05:13:43.951Z,70.76
2022-09-25T05:16:47.250Z,70.93
2022-09-25T05:19:50.086Z,70.83
2022-09-25T05:22:59.519Z,71.10
2022-09-25T05:26:03.048Z,70.97
2022-09-25T05:29:06.290Z,70.79
2022-09-25T05:32:09.257Z,71.02
2022-09-25T05:35:12.118Z,70.98
2022-09-25T05:38:15.144Z,71.28
2022-09-25T05:41:18.719Z,71.17
2022-09-25T05:44:21.628Z,71.40
2022-09-25T05:47:24.497Z,71.32
2022-09-25T05:50:27.630Z,71.44
2022-09-25T05:53:39.522Z,71.28
2022-09-25T05:56:50.196Z,71.53
2022-09-25T05:59:54.359Z,71.46
2022-09-25T06:02:57.287Z,71.44
2022-09-25T06:06:02.609Z,71.47
2022-09-25T06:09:07.491Z,71.27
2022-09-25T06:12:10.368Z,71.55
2022-09-25T06:15:13.279Z,71.51
2022-09-25T06:18:16.235Z,71.58
2022-09-25T06:21:19.181Z,71.90
2022-09-25T06:24:22.113Z,71.82
2022-09-25T06:27:25.373Z,71.77
2022-09-25T06:30:36.875Z,71.88
2022-09-25T06:33:50.233Z,71.92
2022-09-25T06:36:53.146Z,71.78
2022-09-25T06:39:56.078Z,72.03
2022-09-25T06:43:00.532Z,72.01
2022-09-25T06:46:04.180Z,71.75
2022-09-25T06:49:07.175Z,71.98
2022-09-25T06:52:10.086Z,71.94
2022-09-25T06:55:12.993Z,72.13
2022-09-25T06:58:22.802Z,71.92
2022-09-25T07:01:25.783Z,71.88
2022-09-25T07:04:28.687Z,72.06
2022-09-25T07:07:31.629Z,71.81
2022-09-25T07:10:34.502Z,72.31
2022-09-25T07:13:37.402Z,72.49
2022-09-25T07:16:40.490Z,72.16
2022-09-25T07:19:43.328Z,72.14
2022-09-25T07:22:46.140Z,72.09
2022-09-25T07:25:49.515Z,71.89
2022-09-25T07:29:01.411Z,72.03
2022-09-25T07:32:04.859Z,72.02
2022-09-25T07:35:08.035Z,71.99
2022-09-25T07:38:10.915Z,71.96
2022-09-25T07:41:13.842Z,72.03
2022-09-25T07:44:37.900Z,72.07
2022-09-25T07:47:39.887Z,72.18
2022-09-25T07:50:42.720Z,72.00
2022-09-25T07:53:45.712Z,72.15
2022-09-25T07:56:48.531Z,71.94
2022-09-25T07:59:51.360Z,72.01
2022-09-25T08:02:59.109Z,71.89
2022-09-25T08:06:03.640Z,72.04
2022-09-25T08:09:10.345Z,72.01
2022-09-25T08:12:13.714Z,71.95
2022-09-25T08:15:16.754Z,72.00
2022-09-25T08:18:19.716Z,72.16
2022-09-25T08:21:22.600Z,72.09
2022-09-25T08:24:25.499Z,72.19
2022-09-25T08:27:29.386Z,72.23
2022-09-25T08:30:32.942Z,72.14
2022-09-25T08:33:37.106Z,72.24
2022-09-25T08:36:40.065Z,72.29
2022-09-25T08:39:43.131Z,72.37
2022-09-25T08:42:49.803Z,72.26
2022-09-25T08:46:13.389Z,72.43
2022-09-25T08:49:17.449Z,72.39
2022-09-25T08:52:22.867Z,72.28
2022-09-25T08:55:47.246Z,72.53
2022-09-25T08:58:56.099Z,72.46
2022-09-25T09:02:11.328Z,72.59
2022-09-25T09:05:33.931Z,72.60
2022-09-25T09:08:37.840Z,72.68
2022-09-25T09:11:50.361Z,72.54
2022-09-25T09:15:07.025Z,72.66
2022-09-25T09:18:28.066Z,72.67
2022-09-25T09:21:35.525Z,72.66
2022-09-25T09:25:03.257Z,72.72
2022-09-25T09:28:22.930Z,72.62
2022-09-25T09:31:45.950Z,72.76
2022-09-25T09:35:06.268Z,72.75
2022-09-25T09:38:42.480Z,72.90
2022-09-25T09:41:54.776Z,72.84
2022-09-25T09:45:14.451Z,72.96
2022-09-25T09:48:30.533Z,72.87
2022-09-25T09:51:40.488Z,72.80
2022-09-25T09:55:31.002Z,72.92
2022-09-25T09:58:45.235Z,72.94
2022-09-25T10:02:14.613Z,73.02
2022-09-25T10:05:20.938Z,73.11
2022-09-25T10:08:24.327Z,73.03
2022-09-25T10:11:31.569Z,73.00
2022-09-25T10:14:41.516Z,72.99
2022-09-25T10:17:44.845Z,73.25
2022-09-25T10:20:57.527Z,73.48
2022-09-25T10:24:03.280Z,73.11
2022-09-25T10:27:24.948Z,72.79
2022-09-25T10:30:28.138Z,72.41
2022-09-25T10:33:32.048Z,72.09
2022-09-25T10:36:39.359Z,71.82
2022-09-25T10:39:45.283Z,71.81
2022-09-25T10:42:49.276Z,71.81
2022-09-25T10:46:07.073Z,71.77
2022-09-25T10:49:36.276Z,71.89
2022-09-25T10:52:52.337Z,71.80
2022-09-25T10:56:05.191Z,71.59
2022-09-25T10:59:16.300Z,71.50
2022-09-25T11:02:31.335Z,71.62
2022-09-25T11:05:36.967Z,71.70
2022-09-25T11:08:41.409Z,71.54
2022-09-25T11:11:47.285Z,71.35
2022-09-25T11:15:03.259Z,71.28
2022-09-25T11:18:06.467Z,71.24
2022-09-25T11:21:18.279Z,71.09
2022-09-25T11:25:01.212Z,70.85
2022-09-25T11:28:14.983Z,70.58
2022-09-25T11:31:44.155Z,70.61
2022-09-25T11:35:11.543Z,70.50
2022-09-25T11:39:01.137Z,70.46
2022-09-25T11:42:19.429Z,70.27
2022-09-25T11:45:43.903Z,70.27
2022-09-25T11:49:12.483Z,70.17
2022-09-25T11:52:38.042Z,69.92
2022-09-25T11:56:00.325Z,69.86
2022-09-25T11:59:06.192Z,69.88
2022-09-25T12:02:15.095Z,69.81
2022-09-25T12:05:40.410Z,69.85
2022-09-25T12:09:03.086Z,69.51
2022-09-25T12:12:15.575Z,69.44
2022-09-25T12:15:38.580Z,69.43
2022-09-25T12:18:56.611Z,69.39
2022-09-25T12:22:05.916Z,68.92
2022-09-25T12:25:24.131Z,68.64
2022-09-25T12:28:41.644Z,68.42
2022-09-25T12:32:05.602Z,68.33
2022-09-25T12:35:22.843Z,68.11
2022-09-25T12:38:49.284Z,68.08
2022-09-25T12:42:10.245Z,68.26
2022-09-25T12:45:19.862Z,67.97
2022-09-25T12:48:34.576Z,67.89
2022-09-25T12:51:45.685Z,67.97
2022-09-25T12:55:07.406Z,68.02
2022-09-25T12:58:39.167Z,68.01
2022-09-25T13:02:06.184Z,67.94
2022-09-25T13:05:21.752Z,67.88
2022-09-25T13:08:43.598Z,67.98
2022-09-25T13:11:55.218Z,68.03
2022-09-25T13:15:04.467Z,68.09
2022-09-25T13:18:17.510Z,67.94
2022-09-25T13:21:36.989Z,67.98
2022-09-25T13:24:45.852Z,68.14
2022-09-25T13:27:50.198Z,67.94
2022-09-25T13:31:10.285Z,68.13
2022-09-25T13:34:21.094Z,68.19
2022-09-25T13:37:28.383Z,68.30
2022-09-25T13:40:45.802Z,68.33
2022-09-25T13:43:49.604Z,68.45
2022-09-25T13:47:36.619Z,68.51
2022-09-25T13:50:47.211Z,68.53
2022-09-25T13:54:03.191Z,68.72
2022-09-25T13:57:06.593Z,68.76
2022-09-25T14:00:15.906Z,68.87
2022-09-25T14:03:44.946Z,69.04
2022-09-25T14:06:54.678Z,69.01
2022-09-25T14:10:00.535Z,69.07
2022-09-25T14:13:07.118Z,69.22
2022-09-25T14:16:22.970Z,69.30
2022-09-25T14:19:32.952Z,69.20
2022-09-25T14:22:43.204Z,69.19
2022-09-25T14:25:47.685Z,69.31
2022-09-25T14:28:52.710Z,69.44
2022-09-25T14:32:04.029Z,69.46
2022-09-25T14:35:21.917Z,69.52
2022-09-25T14:38:43.081Z,69.53
2022-09-25T14:41:46.677Z,69.65
2022-09-25T14:45:06.366Z,69.70
2022-09-25T14:48:20.023Z,69.79
2022-09-25T14:51:41.853Z,69.97
2022-09-25T14:54:48.150Z,70.14
2022-09-25T14:57:52.369Z,70.24
2022-09-25T15:01:00.135Z,70.28
2022-09-25T15:04:06.215Z,70.35
2022-09-25T15:07:14.578Z,70.24
2022-09-25T15:10:38.605Z,70.18
2022-09-25T15:13:42.532Z,70.10
2022-09-25T15:17:04.302Z,70.15
2022-09-25T15:20:13.665Z,70.24
2022-09-25T15:23:21.339Z,70.23
2022-09-25T15:26:24.538Z,70.38
2022-09-25T15:29:27.728Z,70.47
2022-09-25T15:32:39.841Z,70.50
2022-09-25T15:35:42.837Z,70.51
2022-09-25T15:38:53.696Z,70.49
2022-09-25T15:41:56.986Z,70.63
2022-09-25T15:45:23.575Z,70.51
2022-09-25T15:48:31.424Z,70.54
2022-09-25T15:51:36.299Z,70.58
2022-09-25T15:54:45.220Z,70.71
2022-09-25T15:57:51.437Z,70.77
2022-09-25T16:01:20.211Z,70.80
2022-09-25T16:04:46.143Z,70.89
2022-09-25T16:07:49.731Z,70.91
2022-09-25T16:11:06.732Z,70.96
2022-09-25T16:14:20.954Z,70.99
2022-09-25T16:17:33.810Z,71.09
2022-09-25T16:20:39.509Z,71.21
2022-09-25T16:23:43.614Z,71.24
2022-09-25T16:26:52.817Z,71.32
2022-09-25T16:30:02.724Z,71.35
2022-09-25T16:33:23.850Z,71.46
2022-09-25T16:36:36.869Z,71.50
2022-09-25T16:39:40.088Z,71.54
2022-09-25T16:42:45.064Z,71.62
2022-09-25T16:46:01.704Z,71.69
2022-09-25T16:49:05.496Z,71.86
2022-09-25T16:52:08.970Z,71.96
2022-09-25T16:55:21.602Z,72.12
2022-09-25T16:58:24.871Z,72.19
2022-09-25T17:01:28.687Z,72.29
2022-09-25T17:04:35.883Z,72.36
2022-09-25T17:07:39.796Z,72.44
2022-09-25T17:10:42.873Z,72.50
2022-09-25T17:13:46.440Z,72.54
2022-09-25T17:16:50.900Z,72.49
2022-09-25T17:19:53.874Z,72.54
2022-09-25T17:22:57.577Z,72.62
2022-09-25T17:26:06.156Z,72.63
2022-09-25T17:29:09.803Z,72.56
2022-09-25T17:32:18.860Z,72.60
2022-09-25T17:35:45.937Z,72.55
2022-09-25T17:38:49.036Z,72.63
2022-09-25T17:41:52.295Z,72.67
2022-09-25T17:44:57.588Z,72.74
2022-09-25T17:48:04.297Z,72.80
2022-09-25T17:51:15.923Z,72.74
2022-09-25T17:54:19.149Z,72.69
2022-09-25T17:57:22.473Z,72.68
2022-09-25T18:00:25.937Z,72.72
2022-09-25T18:03:31.445Z,72.79
2022-09-25T18:06:34.467Z,72.70
2022-09-25T18:09:40.865Z,72.83
2022-09-25T18:12:43.862Z,72.75
2022-09-25T18:15:49.935Z,72.69
2022-09-25T18:19:11.919Z,72.64
2022-09-25T18:22:19.003Z,72.65
2022-09-25T18:25:26.226Z,72.58
2022-09-25T18:28:30.211Z,72.59
2022-09-25T18:31:33.748Z,72.61
2022-09-25T18:34:36.796Z,72.57
2022-09-25T18:41:03.374Z,72.53
2022-09-25T18:44:07.470Z,72.54
2022-09-25T18:47:11.711Z,72.61
2022-09-25T18:50:20.582Z,72.61
2022-09-25T18:53:24.785Z,72.77
2022-09-25T18:56:28.446Z,72.81
2022-09-25T18:59:31.440Z,72.83
2022-09-25T19:02:38.917Z,73.02
2022-09-25T19:05:42.557Z,72.99
2022-09-25T19:08:53.215Z,72.95
2022-09-25T19:11:56.499Z,72.96
2022-09-25T19:14:59.621Z,72.94
2022-09-25T19:18:04.358Z,72.79
2022-09-25T19:21:07.666Z,72.75
2022-09-25T19:24:11.105Z,72.78
2022-09-25T19:27:16.383Z,72.75
2022-09-25T19:30:19.637Z,72.80
2022-09-25T19:33:22.676Z,72.82
2022-09-25T19:36:32.452Z,72.74
2022-09-25T19:39:56.158Z,72.87
2022-09-25T19:43:01.117Z,72.83
2022-09-25T19:46:05.074Z,72.87
2022-09-25T19:49:08.115Z,73.00
2022-09-25T19:52:11.610Z,72.99
2022-09-25T19:55:15.375Z,73.06
2022-09-25T19:58:23.103Z,72.99
2022-09-25T20:01:30.362Z,73.02
2022-09-25T20:04:34.269Z,73.20
2022-09-25T20:07:37.559Z,73.15
2022-09-25T20:10:40.818Z,73.23
2022-09-25T20:13:44.519Z,73.36
2022-09-25T20:16:47.632Z,73.45
2022-09-25T20:19:51.462Z,73.42
2022-09-25T20:22:58.514Z,73.42
2022-09-25T20:26:17.198Z,73.50
2022-09-25T20:29:22.931Z,73.49
2022-09-25T20:32:28.742Z,73.70
2022-09-25T20:35:34.964Z,73.57
2022-09-25T20:38:41.034Z,73.67
2022-09-25T20:41:44.538Z,73.64
2022-09-25T20:44:51.944Z,73.65
2022-09-25T20:47:55.289Z,73.72
2022-09-25T20:50:58.758Z,73.79
2022-09-25T20:54:12.823Z,73.85
2022-09-25T20:57:19.326Z,73.87
2022-09-25T21:00:26.203Z,73.78
2022-09-25T21:03:33.808Z,73.90
2022-09-25T21:06:39.429Z,73.75
2022-09-25T21:09:44.987Z,73.79
2022-09-25T21:12:52.159Z,73.72
2022-09-25T21:16:07.515Z,73.76
2022-09-25T21:19:18.540Z,73.89
2022-09-25T21:22:21.970Z,73.81
2022-09-25T21:25:26.869Z,73.66
2022-09-25T21:28:32.114Z,73.66
2022-09-25T21:31:41.087Z,73.73
2022-09-25T21:34:57.433Z,73.78
2022-09-25T21:38:00.345Z,73.65
2022-09-25T21:41:09.905Z,73.68
2022-09-25T21:44:20.602Z,73.62
2022-09-25T21:47:23.473Z,73.50
2022-09-25T21:50:26.356Z,73.53
2022-09-25T21:53:29.875Z,73.61
2022-09-25T21:56:33.327Z,73.49
2022-09-25T21:59:36.237Z,73.29
2022-09-25T22:02:40.382Z,73.25
2022-09-25T22:05:48.175Z,73.28
2022-09-25T22:08:54.134Z,73.17
2022-09-25T22:11:57.479Z,73.15
2022-09-25T22:15:00.551Z,73.23
2022-09-25T22:18:03.497Z,73.21
2022-09-25T22:21:06.379Z,73.13
2022-09-25T22:24:09.977Z,73.08
2022-09-25T22:27:12.879Z,73.17
2022-09-25T22:30:15.875Z,73.02
2022-09-25T22:33:27.990Z,73.24
2022-09-25T22:36:32.075Z,73.15
2022-09-25T22:39:34.982Z,73.22
2022-09-25T22:42:37.813Z,73.09
2022-09-25T22:45:49.127Z,73.23
2022-09-25T22:48:52.300Z,73.19
2022-09-25T22:51:55.276Z,73.00
2022-09-25T22:54:58.122Z,72.89
2022-09-25T22:58:01.053Z,72.87
2022-09-25T23:01:07.870Z,72.90
2022-09-25T23:04:13.852Z,73.14
2022-09-25T23:07:16.701Z,73.16
2022-09-25T23:10:19.616Z,73.15
2022-09-25T23:13:22.712Z,73.32
2022-09-25T23:16:40.695Z,73.50
2022-09-25T23:19:43.574Z,73.62
2022-09-25T23:26:16.882Z,73.75
2022-09-25T23:29:22.200Z,73.72
2022-09-25T23:32:25.135Z,73.91
2022-09-25T23:35:28.059Z,73.96
2022-09-25T23:38:30.981Z,74.09
2022-09-25T23:41:38.288Z,74.18
2022-09-25T23:44:41.223Z,74.08
2022-09-25T23:47:44.184Z,74.21
2022-09-25T23:50:47.280Z,74.18
2022-09-25T23:53:50.551Z,74.21
2022-09-25T23:56:53.546Z,74.21
2022-09-25T23:59:56.751Z,74.23
